sensor_id;sensor_type;location;lat;lon;timestamp;P1;durP1;ratioP1;P2;durP2;ratioP2
72273;SDS011;60208;48.692;8.948;2023-06-14T00:00:39;7.65;;;4.28;;
72273;SDS011;60208;48.692;8.948;2023-06-14T00:03:17;6.95;;;4.25;;
72273;SDS011;60208;48.692;8.948;2023-06-14T00:08:22;6.00;;;3.90;;
72273;SDS011;60208;48.692;8.948;2023-06-14T00:10:50;4.85;;;4.20;;
72273;SDS011;60208;48.692;8.948;2023-06-14T00:13:19;5.45;;;3.88;;
72273;SDS011;60208;48.692;8.948;2023-06-14T00:15:59;7.03;;;4.00;;
72273;SDS011;60208;48.692;8.948;2023-06-14T00:18:25;7.97;;;4.20;;
72273;SDS011;60208;48.692;8.948;2023-06-14T00:21:12;8.73;;;4.28;;
72273;SDS011;60208;48.692;8.948;2023-06-14T00:23:40;6.47;;;4.15;;
72273;SDS011;60208;48.692;8.948;2023-06-14T00:26:08;6.75;;;4.28;;
72273;SDS011;60208;48.692;8.948;2023-06-14T00:28:34;6.25;;;4.40;;
72273;SDS011;60208;48.692;8.948;2023-06-14T00:31:09;5.75;;;4.20;;
72273;SDS011;60208;48.692;8.948;2023-06-14T00:33:37;8.15;;;4.45;;
72273;SDS011;60208;48.692;8.948;2023-06-14T00:36:05;6.07;;;4.20;;
72273;SDS011;60208;48.692;8.948;2023-06-14T00:38:31;5.43;;;4.63;;
72273;SDS011;60208;48.692;8.948;2023-06-14T00:40:57;5.88;;;4.32;;
72273;SDS011;60208;48.692;8.948;2023-06-14T00:43:28;5.43;;;4.38;;
72273;SDS011;60208;48.692;8.948;2023-06-14T00:46:04;8.40;;;4.38;;
72273;SDS011;60208;48.692;8.948;2023-06-14T00:48:32;5.32;;;4.25;;
72273;SDS011;60208;48.692;8.948;2023-06-14T00:50:58;5.97;;;4.38;;
72273;SDS011;60208;48.692;8.948;2023-06-14T00:53:34;6.13;;;4.32;;
72273;SDS011;60208;48.692;8.948;2023-06-14T00:56:13;5.78;;;4.07;;
72273;SDS011;60208;48.692;8.948;2023-06-14T00:58:45;6.43;;;4.20;;
72273;SDS011;60208;48.692;8.948;2023-06-14T01:01:12;5.47;;;4.07;;
72273;SDS011;60208;48.692;8.948;2023-06-14T01:03:48;6.20;;;4.10;;
72273;SDS011;60208;48.692;8.948;2023-06-14T01:09:27;5.47;;;4.18;;
72273;SDS011;60208;48.692;8.948;2023-06-14T01:12:48;6.10;;;4.00;;
72273;SDS011;60208;48.692;8.948;2023-06-14T01:14:56;4.43;;;3.92;;
72273;SDS011;60208;48.692;8.948;2023-06-14T01:17:38;7.90;;;3.95;;
72273;SDS011;60208;48.692;8.948;2023-06-14T01:20:07;4.63;;;3.95;;
72273;SDS011;60208;48.692;8.948;2023-06-14T01:22:37;5.43;;;4.10;;
72273;SDS011;60208;48.692;8.948;2023-06-14T01:25:14;5.55;;;4.45;;
72273;SDS011;60208;48.692;8.948;2023-06-14T01:27:55;4.20;;;3.80;;
72273;SDS011;60208;48.692;8.948;2023-06-14T01:30:26;5.25;;;3.90;;
72273;SDS011;60208;48.692;8.948;2023-06-14T01:32:55;6.03;;;4.20;;
72273;SDS011;60208;48.692;8.948;2023-06-14T01:35:32;5.68;;;4.47;;
72273;SDS011;60208;48.692;8.948;2023-06-14T01:38:26;6.18;;;4.07;;
72273;SDS011;60208;48.692;8.948;2023-06-14T01:40:54;5.78;;;4.20;;
72273;SDS011;60208;48.692;8.948;2023-06-14T01:43:23;6.50;;;4.25;;
72273;SDS011;60208;48.692;8.948;2023-06-14T01:45:49;5.00;;;4.28;;
72273;SDS011;60208;48.692;8.948;2023-06-14T01:48:15;5.75;;;4.15;;
72273;SDS011;60208;48.692;8.948;2023-06-14T01:50:44;6.20;;;4.82;;
72273;SDS011;60208;48.692;8.948;2023-06-14T01:53:10;5.78;;;4.47;;
72273;SDS011;60208;48.692;8.948;2023-06-14T01:55:36;5.45;;;4.38;;
72273;SDS011;60208;48.692;8.948;2023-06-14T01:58:18;6.67;;;4.37;;
72273;SDS011;60208;48.692;8.948;2023-06-14T02:00:47;7.72;;;4.60;;
72273;SDS011;60208;48.692;8.948;2023-06-14T02:03:18;6.82;;;4.18;;
72273;SDS011;60208;48.692;8.948;2023-06-14T02:05:46;5.40;;;4.50;;
72273;SDS011;60208;48.692;8.948;2023-06-14T02:08:24;6.60;;;4.68;;
72273;SDS011;60208;48.692;8.948;2023-06-14T02:10:50;5.43;;;4.28;;
72273;SDS011;60208;48.692;8.948;2023-06-14T02:13:43;5.50;;;4.60;;
72273;SDS011;60208;48.692;8.948;2023-06-14T02:16:19;10.10;;;4.45;;
72273;SDS011;60208;48.692;8.948;2023-06-14T02:18:54;5.75;;;4.07;;
72273;SDS011;60208;48.692;8.948;2023-06-14T02:21:21;5.70;;;4.78;;
72273;SDS011;60208;48.692;8.948;2023-06-14T02:23:47;6.82;;;4.60;;
72273;SDS011;60208;48.692;8.948;2023-06-14T02:26:13;7.32;;;4.55;;
72273;SDS011;60208;48.692;8.948;2023-06-14T02:28:38;6.03;;;4.55;;
72273;SDS011;60208;48.692;8.948;2023-06-14T02:31:04;6.28;;;4.80;;
72273;SDS011;60208;48.692;8.948;2023-06-14T02:33:30;8.23;;;4.72;;
72273;SDS011;60208;48.692;8.948;2023-06-14T02:35:55;5.95;;;4.55;;
72273;SDS011;60208;48.692;8.948;2023-06-14T02:38:22;6.53;;;5.00;;
72273;SDS011;60208;48.692;8.948;2023-06-14T02:40:47;6.97;;;4.70;;
72273;SDS011;60208;48.692;8.948;2023-06-14T02:43:13;5.15;;;4.65;;
72273;SDS011;60208;48.692;8.948;2023-06-14T02:45:39;5.57;;;4.85;;
72273;SDS011;60208;48.692;8.948;2023-06-14T02:48:05;6.75;;;4.70;;
72273;SDS011;60208;48.692;8.948;2023-06-14T02:50:31;5.82;;;4.80;;
72273;SDS011;60208;48.692;8.948;2023-06-14T02:52:57;7.63;;;4.85;;
72273;SDS011;60208;48.692;8.948;2023-06-14T02:55:25;6.57;;;4.57;;
72273;SDS011;60208;48.692;8.948;2023-06-14T02:57:51;6.70;;;4.70;;
72273;SDS011;60208;48.692;8.948;2023-06-14T03:00:18;6.30;;;4.78;;
72273;SDS011;60208;48.692;8.948;2023-06-14T03:02:45;6.82;;;4.68;;
72273;SDS011;60208;48.692;8.948;2023-06-14T03:05:13;6.20;;;4.65;;
72273;SDS011;60208;48.692;8.948;2023-06-14T03:07:39;5.60;;;4.80;;
72273;SDS011;60208;48.692;8.948;2023-06-14T03:10:20;7.40;;;4.97;;
72273;SDS011;60208;48.692;8.948;2023-06-14T03:12:58;8.93;;;4.90;;
72273;SDS011;60208;48.692;8.948;2023-06-14T03:15:26;7.88;;;4.65;;
72273;SDS011;60208;48.692;8.948;2023-06-14T03:17:52;6.47;;;4.68;;
72273;SDS011;60208;48.692;8.948;2023-06-14T03:20:23;5.05;;;4.45;;
72273;SDS011;60208;48.692;8.948;2023-06-14T03:22:54;7.57;;;5.05;;
72273;SDS011;60208;48.692;8.948;2023-06-14T03:25:19;7.47;;;4.97;;
72273;SDS011;60208;48.692;8.948;2023-06-14T03:27:46;6.60;;;4.80;;
72273;SDS011;60208;48.692;8.948;2023-06-14T03:30:12;7.32;;;5.05;;
72273;SDS011;60208;48.692;8.948;2023-06-14T03:32:46;6.28;;;4.80;;
72273;SDS011;60208;48.692;8.948;2023-06-14T03:35:12;7.28;;;4.63;;
72273;SDS011;60208;48.692;8.948;2023-06-14T03:37:58;7.70;;;4.93;;
72273;SDS011;60208;48.692;8.948;2023-06-14T03:40:36;5.60;;;4.80;;
72273;SDS011;60208;48.692;8.948;2023-06-14T03:43:02;6.00;;;5.00;;
72273;SDS011;60208;48.692;8.948;2023-06-14T03:45:37;6.15;;;4.78;;
72273;SDS011;60208;48.692;8.948;2023-06-14T03:48:20;8.80;;;4.88;;
72273;SDS011;60208;48.692;8.948;2023-06-14T03:51:08;7.43;;;4.95;;
72273;SDS011;60208;48.692;8.948;2023-06-14T03:53:37;7.30;;;5.05;;
72273;SDS011;60208;48.692;8.948;2023-06-14T03:56:11;7.53;;;4.97;;
72273;SDS011;60208;48.692;8.948;2023-06-14T03:58:46;6.03;;;5.00;;
72273;SDS011;60208;48.692;8.948;2023-06-14T04:01:11;8.07;;;5.30;;
72273;SDS011;60208;48.692;8.948;2023-06-14T04:03:44;7.03;;;5.00;;
72273;SDS011;60208;48.692;8.948;2023-06-14T04:06:10;6.45;;;4.78;;
72273;SDS011;60208;48.692;8.948;2023-06-14T04:08:47;6.13;;;4.63;;
72273;SDS011;60208;48.692;8.948;2023-06-14T04:11:14;5.70;;;4.43;;
72273;SDS011;60208;48.692;8.948;2023-06-14T04:13:42;7.05;;;4.72;;
72273;SDS011;60208;48.692;8.948;2023-06-14T04:16:18;6.35;;;5.07;;
72273;SDS011;60208;48.692;8.948;2023-06-14T04:18:45;7.20;;;5.40;;
72273;SDS011;60208;48.692;8.948;2023-06-14T04:21:13;8.48;;;5.57;;
72273;SDS011;60208;48.692;8.948;2023-06-14T04:23:40;8.77;;;6.13;;
72273;SDS011;60208;48.692;8.948;2023-06-14T04:26:08;7.20;;;4.70;;
72273;SDS011;60208;48.692;8.948;2023-06-14T04:28:35;10.65;;;5.50;;
72273;SDS011;60208;48.692;8.948;2023-06-14T04:31:14;8.20;;;4.72;;
72273;SDS011;60208;48.692;8.948;2023-06-14T04:33:41;5.43;;;4.60;;
72273;SDS011;60208;48.692;8.948;2023-06-14T04:36:11;7.60;;;4.53;;
72273;SDS011;60208;48.692;8.948;2023-06-14T04:38:46;6.80;;;4.72;;
72273;SDS011;60208;48.692;8.948;2023-06-14T04:41:16;6.97;;;4.88;;
72273;SDS011;60208;48.692;8.948;2023-06-14T04:43:47;8.45;;;4.70;;
72273;SDS011;60208;48.692;8.948;2023-06-14T04:46:15;9.73;;;5.57;;
72273;SDS011;60208;48.692;8.948;2023-06-14T04:48:46;9.98;;;5.63;;
72273;SDS011;60208;48.692;8.948;2023-06-14T04:51:30;7.80;;;4.72;;
72273;SDS011;60208;48.692;8.948;2023-06-14T04:54:12;5.75;;;4.55;;
72273;SDS011;60208;48.692;8.948;2023-06-14T04:56:41;7.13;;;5.00;;
72273;SDS011;60208;48.692;8.948;2023-06-14T04:59:11;6.18;;;4.68;;
72273;SDS011;60208;48.692;8.948;2023-06-14T05:01:44;5.68;;;4.47;;
72273;SDS011;60208;48.692;8.948;2023-06-14T05:04:35;8.03;;;4.80;;
72273;SDS011;60208;48.692;8.948;2023-06-14T05:09:53;6.63;;;4.90;;
72273;SDS011;60208;48.692;8.948;2023-06-14T05:12:24;8.38;;;5.00;;
72273;SDS011;60208;48.692;8.948;2023-06-14T05:15:00;8.10;;;4.82;;
72273;SDS011;60208;48.692;8.948;2023-06-14T05:17:33;6.95;;;4.88;;
72273;SDS011;60208;48.692;8.948;2023-06-14T05:20:03;7.32;;;4.55;;
72273;SDS011;60208;48.692;8.948;2023-06-14T05:22:33;7.68;;;5.13;;
72273;SDS011;60208;48.692;8.948;2023-06-14T05:25:01;8.20;;;4.78;;
72273;SDS011;60208;48.692;8.948;2023-06-14T05:27:32;10.32;;;5.10;;
72273;SDS011;60208;48.692;8.948;2023-06-14T05:30:02;5.27;;;3.57;;
72273;SDS011;60208;48.692;8.948;2023-06-14T05:32:36;6.03;;;4.90;;
72273;SDS011;60208;48.692;8.948;2023-06-14T05:35:32;8.77;;;4.90;;
72273;SDS011;60208;48.692;8.948;2023-06-14T05:37:58;9.55;;;4.90;;
72273;SDS011;60208;48.692;8.948;2023-06-14T05:40:34;13.48;;;4.40;;
72273;SDS011;60208;48.692;8.948;2023-06-14T05:43:10;10.63;;;4.97;;
72273;SDS011;60208;48.692;8.948;2023-06-14T05:45:40;15.70;;;5.88;;
72273;SDS011;60208;48.692;8.948;2023-06-14T05:48:06;17.55;;;5.40;;
72273;SDS011;60208;48.692;8.948;2023-06-14T05:50:52;12.95;;;5.35;;
72273;SDS011;60208;48.692;8.948;2023-06-14T05:53:20;22.02;;;5.38;;
72273;SDS011;60208;48.692;8.948;2023-06-14T05:55:49;10.55;;;5.20;;
72273;SDS011;60208;48.692;8.948;2023-06-14T05:58:30;12.13;;;5.10;;
72273;SDS011;60208;48.692;8.948;2023-06-14T06:01:00;13.65;;;5.20;;
72273;SDS011;60208;48.692;8.948;2023-06-14T06:03:41;13.50;;;5.35;;
72273;SDS011;60208;48.692;8.948;2023-06-14T06:06:33;12.85;;;4.63;;
72273;SDS011;60208;48.692;8.948;2023-06-14T06:09:00;12.00;;;4.95;;
72273;SDS011;60208;48.692;8.948;2023-06-14T06:11:39;14.20;;;5.28;;
72273;SDS011;60208;48.692;8.948;2023-06-14T06:16:59;16.38;;;5.22;;
72273;SDS011;60208;48.692;8.948;2023-06-14T06:19:28;12.57;;;4.80;;
72273;SDS011;60208;48.692;8.948;2023-06-14T06:22:12;20.58;;;4.57;;
72273;SDS011;60208;48.692;8.948;2023-06-14T06:24:43;12.07;;;4.55;;
72273;SDS011;60208;48.692;8.948;2023-06-14T06:27:11;9.68;;;4.32;;
72273;SDS011;60208;48.692;8.948;2023-06-14T06:29:38;6.20;;;3.40;;
72273;SDS011;60208;48.692;8.948;2023-06-14T06:32:19;9.18;;;4.22;;
72273;SDS011;60208;48.692;8.948;2023-06-14T06:34:57;8.18;;;4.65;;
72273;SDS011;60208;48.692;8.948;2023-06-14T06:37:26;12.65;;;4.30;;
72273;SDS011;60208;48.692;8.948;2023-06-14T06:40:01;12.10;;;4.55;;
72273;SDS011;60208;48.692;8.948;2023-06-14T06:42:31;14.57;;;4.60;;
72273;SDS011;60208;48.692;8.948;2023-06-14T06:45:06;18.92;;;4.85;;
72273;SDS011;60208;48.692;8.948;2023-06-14T06:47:40;13.45;;;4.43;;
72273;SDS011;60208;48.692;8.948;2023-06-14T06:50:05;14.85;;;4.60;;
72273;SDS011;60208;48.692;8.948;2023-06-14T06:52:35;14.57;;;3.72;;
72273;SDS011;60208;48.692;8.948;2023-06-14T06:55:14;10.18;;;3.85;;
72273;SDS011;60208;48.692;8.948;2023-06-14T06:57:50;8.77;;;3.88;;
72273;SDS011;60208;48.692;8.948;2023-06-14T07:00:19;11.38;;;4.32;;
72273;SDS011;60208;48.692;8.948;2023-06-14T07:02:48;16.20;;;4.60;;
72273;SDS011;60208;48.692;8.948;2023-06-14T07:05:14;11.52;;;4.65;;
72273;SDS011;60208;48.692;8.948;2023-06-14T07:07:40;12.43;;;4.53;;
72273;SDS011;60208;48.692;8.948;2023-06-14T07:10:06;16.52;;;4.63;;
72273;SDS011;60208;48.692;8.948;2023-06-14T07:12:33;11.88;;;4.50;;
72273;SDS011;60208;48.692;8.948;2023-06-14T07:15:01;7.72;;;4.20;;
72273;SDS011;60208;48.692;8.948;2023-06-14T07:17:26;9.35;;;4.55;;
72273;SDS011;60208;48.692;8.948;2023-06-14T07:19:55;9.65;;;4.20;;
72273;SDS011;60208;48.692;8.948;2023-06-14T07:22:22;8.13;;;4.10;;
72273;SDS011;60208;48.692;8.948;2023-06-14T07:24:55;7.25;;;3.92;;
72273;SDS011;60208;48.692;8.948;2023-06-14T07:27:20;8.10;;;4.22;;
72273;SDS011;60208;48.692;8.948;2023-06-14T07:29:46;10.25;;;4.00;;
72273;SDS011;60208;48.692;8.948;2023-06-14T07:32:12;6.20;;;3.75;;
72273;SDS011;60208;48.692;8.948;2023-06-14T07:34:37;8.48;;;4.03;;
72273;SDS011;60208;48.692;8.948;2023-06-14T07:37:03;6.90;;;3.88;;
72273;SDS011;60208;48.692;8.948;2023-06-14T07:39:28;5.32;;;3.80;;
72273;SDS011;60208;48.692;8.948;2023-06-14T07:41:54;5.72;;;3.63;;
72273;SDS011;60208;48.692;8.948;2023-06-14T07:44:20;6.22;;;3.80;;
72273;SDS011;60208;48.692;8.948;2023-06-14T07:46:45;7.13;;;3.63;;
72273;SDS011;60208;48.692;8.948;2023-06-14T07:49:14;4.57;;;3.75;;
72273;SDS011;60208;48.692;8.948;2023-06-14T07:51:40;8.55;;;4.10;;
72273;SDS011;60208;48.692;8.948;2023-06-14T07:54:06;7.10;;;3.90;;
72273;SDS011;60208;48.692;8.948;2023-06-14T07:56:32;5.55;;;4.03;;
72273;SDS011;60208;48.692;8.948;2023-06-14T07:58:58;6.45;;;4.20;;
72273;SDS011;60208;48.692;8.948;2023-06-14T08:01:23;9.82;;;4.00;;
72273;SDS011;60208;48.692;8.948;2023-06-14T08:03:53;6.18;;;3.42;;
72273;SDS011;60208;48.692;8.948;2023-06-14T08:06:18;5.28;;;3.78;;
72273;SDS011;60208;48.692;8.948;2023-06-14T08:08:44;4.60;;;3.97;;
72273;SDS011;60208;48.692;8.948;2023-06-14T08:11:09;6.68;;;4.15;;
72273;SDS011;60208;48.692;8.948;2023-06-14T08:13:35;7.75;;;4.00;;
72273;SDS011;60208;48.692;8.948;2023-06-14T08:16:01;9.65;;;4.07;;
72273;SDS011;60208;48.692;8.948;2023-06-14T08:18:29;8.27;;;3.88;;
72273;SDS011;60208;48.692;8.948;2023-06-14T08:20:56;7.25;;;3.80;;
72273;SDS011;60208;48.692;8.948;2023-06-14T08:23:22;6.95;;;3.80;;
72273;SDS011;60208;48.692;8.948;2023-06-14T08:25:48;6.35;;;4.07;;
72273;SDS011;60208;48.692;8.948;2023-06-14T08:28:17;6.88;;;3.58;;
72273;SDS011;60208;48.692;8.948;2023-06-14T08:30:43;7.53;;;3.88;;
72273;SDS011;60208;48.692;8.948;2023-06-14T08:33:08;8.02;;;4.32;;
72273;SDS011;60208;48.692;8.948;2023-06-14T08:35:34;7.75;;;4.63;;
72273;SDS011;60208;48.692;8.948;2023-06-14T08:38:02;6.78;;;4.20;;
72273;SDS011;60208;48.692;8.948;2023-06-14T08:40:29;7.88;;;4.03;;
72273;SDS011;60208;48.692;8.948;2023-06-14T08:42:55;6.95;;;4.10;;
72273;SDS011;60208;48.692;8.948;2023-06-14T08:45:21;6.78;;;3.65;;
72273;SDS011;60208;48.692;8.948;2023-06-14T08:47:52;7.05;;;4.00;;
72273;SDS011;60208;48.692;8.948;2023-06-14T08:50:22;4.00;;;3.60;;
72273;SDS011;60208;48.692;8.948;2023-06-14T08:52:52;5.53;;;3.78;;
72273;SDS011;60208;48.692;8.948;2023-06-14T08:55:19;7.82;;;4.07;;
72273;SDS011;60208;48.692;8.948;2023-06-14T08:57:50;4.78;;;4.25;;
72273;SDS011;60208;48.692;8.948;2023-06-14T09:00:16;7.82;;;3.92;;
72273;SDS011;60208;48.692;8.948;2023-06-14T09:02:42;6.90;;;4.22;;
72273;SDS011;60208;48.692;8.948;2023-06-14T09:05:10;10.35;;;4.20;;
72273;SDS011;60208;48.692;8.948;2023-06-14T09:07:39;6.80;;;4.28;;
72273;SDS011;60208;48.692;8.948;2023-06-14T09:10:15;4.95;;;3.67;;
72273;SDS011;60208;48.692;8.948;2023-06-14T09:12:41;7.82;;;4.47;;
72273;SDS011;60208;48.692;8.948;2023-06-14T09:15:07;6.75;;;4.00;;
72273;SDS011;60208;48.692;8.948;2023-06-14T09:17:34;9.13;;;4.38;;
72273;SDS011;60208;48.692;8.948;2023-06-14T09:20:03;8.90;;;4.07;;
72273;SDS011;60208;48.692;8.948;2023-06-14T09:22:44;5.38;;;4.10;;
72273;SDS011;60208;48.692;8.948;2023-06-14T09:25:10;6.80;;;4.35;;
72273;SDS011;60208;48.692;8.948;2023-06-14T09:27:40;8.93;;;3.97;;
72273;SDS011;60208;48.692;8.948;2023-06-14T09:30:08;7.45;;;3.85;;
72273;SDS011;60208;48.692;8.948;2023-06-14T09:32:38;5.90;;;3.90;;
72273;SDS011;60208;48.692;8.948;2023-06-14T09:35:08;5.75;;;3.97;;
72273;SDS011;60208;48.692;8.948;2023-06-14T09:37:36;6.53;;;4.07;;
72273;SDS011;60208;48.692;8.948;2023-06-14T09:40:08;5.88;;;3.88;;
72273;SDS011;60208;48.692;8.948;2023-06-14T09:42:34;6.07;;;4.10;;
72273;SDS011;60208;48.692;8.948;2023-06-14T09:45:01;7.35;;;3.70;;
72273;SDS011;60208;48.692;8.948;2023-06-14T09:47:28;7.50;;;4.18;;
72273;SDS011;60208;48.692;8.948;2023-06-14T09:49:53;5.07;;;3.88;;
72273;SDS011;60208;48.692;8.948;2023-06-14T09:52:20;7.35;;;3.75;;
72273;SDS011;60208;48.692;8.948;2023-06-14T09:54:54;6.43;;;4.00;;
72273;SDS011;60208;48.692;8.948;2023-06-14T09:57:26;8.52;;;3.67;;
72273;SDS011;60208;48.692;8.948;2023-06-14T09:59:56;9.50;;;3.78;;
72273;SDS011;60208;48.692;8.948;2023-06-14T10:02:35;4.57;;;3.88;;
72273;SDS011;60208;48.692;8.948;2023-06-14T10:05:11;8.45;;;4.00;;
72273;SDS011;60208;48.692;8.948;2023-06-14T10:07:52;6.75;;;3.58;;
72273;SDS011;60208;48.692;8.948;2023-06-14T10:10:24;5.55;;;3.67;;
72273;SDS011;60208;48.692;8.948;2023-06-14T10:12:52;3.65;;;2.88;;
72273;SDS011;60208;48.692;8.948;2023-06-14T10:15:28;5.22;;;4.40;;
72273;SDS011;60208;48.692;8.948;2023-06-14T10:17:58;6.70;;;3.60;;
72273;SDS011;60208;48.692;8.948;2023-06-14T10:20:37;10.25;;;3.25;;
72273;SDS011;60208;48.692;8.948;2023-06-14T10:23:12;6.22;;;3.55;;
72273;SDS011;60208;48.692;8.948;2023-06-14T10:25:43;5.65;;;3.10;;
72273;SDS011;60208;48.692;8.948;2023-06-14T10:30:37;4.25;;;2.95;;
72273;SDS011;60208;48.692;8.948;2023-06-14T10:33:07;7.60;;;3.20;;
72273;SDS011;60208;48.692;8.948;2023-06-14T10:35:33;6.50;;;3.35;;
72273;SDS011;60208;48.692;8.948;2023-06-14T10:38:09;8.02;;;3.17;;
72273;SDS011;60208;48.692;8.948;2023-06-14T10:40:35;4.90;;;3.25;;
72273;SDS011;60208;48.692;8.948;2023-06-14T10:43:01;3.83;;;2.88;;
72273;SDS011;60208;48.692;8.948;2023-06-14T10:48:42;3.43;;;2.60;;
72273;SDS011;60208;48.692;8.948;2023-06-14T10:51:19;4.65;;;2.70;;
72273;SDS011;60208;48.692;8.948;2023-06-14T10:53:48;2.90;;;2.38;;
72273;SDS011;60208;48.692;8.948;2023-06-14T10:56:29;4.30;;;2.25;;
72273;SDS011;60208;48.692;8.948;2023-06-14T10:58:59;3.20;;;2.53;;
72273;SDS011;60208;48.692;8.948;2023-06-14T11:01:35;3.38;;;2.45;;
72273;SDS011;60208;48.692;8.948;2023-06-14T11:04:08;6.50;;;2.75;;
72273;SDS011;60208;48.692;8.948;2023-06-14T11:06:46;6.63;;;3.10;;
72273;SDS011;60208;48.692;8.948;2023-06-14T11:11:59;5.07;;;3.00;;
72273;SDS011;60208;48.692;8.948;2023-06-14T11:14:28;4.38;;;2.63;;
72273;SDS011;60208;48.692;8.948;2023-06-14T11:16:55;6.35;;;2.58;;
72273;SDS011;60208;48.692;8.948;2023-06-14T11:19:27;7.32;;;2.72;;
72273;SDS011;60208;48.692;8.948;2023-06-14T11:21:55;3.63;;;2.53;;
72273;SDS011;60208;48.692;8.948;2023-06-14T11:24:20;3.90;;;2.40;;
72273;SDS011;60208;48.692;8.948;2023-06-14T11:26:55;3.75;;;2.47;;
72273;SDS011;60208;48.692;8.948;2023-06-14T11:29:21;4.20;;;2.50;;
72273;SDS011;60208;48.692;8.948;2023-06-14T11:31:47;4.80;;;2.70;;
72273;SDS011;60208;48.692;8.948;2023-06-14T11:34:15;4.95;;;2.40;;
72273;SDS011;60208;48.692;8.948;2023-06-14T11:36:41;4.57;;;2.53;;
72273;SDS011;60208;48.692;8.948;2023-06-14T11:39:08;7.20;;;2.80;;
72273;SDS011;60208;48.692;8.948;2023-06-14T11:41:42;2.58;;;2.22;;
72273;SDS011;60208;48.692;8.948;2023-06-14T11:44:09;4.82;;;2.45;;
72273;SDS011;60208;48.692;8.948;2023-06-14T11:46:35;2.72;;;2.30;;
72273;SDS011;60208;48.692;8.948;2023-06-14T11:49:01;2.70;;;2.50;;
72273;SDS011;60208;48.692;8.948;2023-06-14T11:51:30;2.80;;;2.47;;
72273;SDS011;60208;48.692;8.948;2023-06-14T11:53:57;9.35;;;2.70;;
72273;SDS011;60208;48.692;8.948;2023-06-14T11:56:23;6.90;;;2.30;;
72273;SDS011;60208;48.692;8.948;2023-06-14T11:58:52;8.82;;;2.67;;
72273;SDS011;60208;48.692;8.948;2023-06-14T12:01:25;8.75;;;2.88;;
72273;SDS011;60208;48.692;8.948;2023-06-14T12:03:52;3.85;;;2.50;;
72273;SDS011;60208;48.692;8.948;2023-06-14T12:06:28;3.33;;;2.58;;
72273;SDS011;60208;48.692;8.948;2023-06-14T12:08:57;8.38;;;2.63;;
72273;SDS011;60208;48.692;8.948;2023-06-14T12:11:23;5.95;;;2.67;;
72273;SDS011;60208;48.692;8.948;2023-06-14T12:13:50;2.97;;;2.67;;
72273;SDS011;60208;48.692;8.948;2023-06-14T12:16:18;6.93;;;2.53;;
72273;SDS011;60208;48.692;8.948;2023-06-14T12:18:46;3.22;;;2.70;;
72273;SDS011;60208;48.692;8.948;2023-06-14T12:21:12;10.15;;;2.60;;
72273;SDS011;60208;48.692;8.948;2023-06-14T12:26:15;4.80;;;2.60;;
72273;SDS011;60208;48.692;8.948;2023-06-14T12:28:47;3.70;;;2.78;;
72273;SDS011;60208;48.692;8.948;2023-06-14T12:31:16;8.10;;;2.75;;
72273;SDS011;60208;48.692;8.948;2023-06-14T12:33:41;7.15;;;2.47;;
72273;SDS011;60208;48.692;8.948;2023-06-14T12:36:07;4.82;;;2.50;;
72273;SDS011;60208;48.692;8.948;2023-06-14T12:38:33;3.90;;;2.33;;
72273;SDS011;60208;48.692;8.948;2023-06-14T12:41:01;3.13;;;2.38;;
72273;SDS011;60208;48.692;8.948;2023-06-14T12:43:27;5.82;;;2.55;;
72273;SDS011;60208;48.692;8.948;2023-06-14T12:45:53;5.07;;;2.35;;
72273;SDS011;60208;48.692;8.948;2023-06-14T12:48:19;3.92;;;2.47;;
72273;SDS011;60208;48.692;8.948;2023-06-14T12:50:45;9.73;;;2.40;;
72273;SDS011;60208;48.692;8.948;2023-06-14T12:53:10;3.40;;;2.50;;
72273;SDS011;60208;48.692;8.948;2023-06-14T12:55:36;4.78;;;2.35;;
72273;SDS011;60208;48.692;8.948;2023-06-14T12:58:04;2.53;;;2.30;;
72273;SDS011;60208;48.692;8.948;2023-06-14T13:00:29;8.27;;;2.47;;
72273;SDS011;60208;48.692;8.948;2023-06-14T13:02:55;9.40;;;2.35;;
72273;SDS011;60208;48.692;8.948;2023-06-14T13:05:22;4.97;;;2.70;;
72273;SDS011;60208;48.692;8.948;2023-06-14T13:07:47;5.07;;;2.65;;
72273;SDS011;60208;48.692;8.948;2023-06-14T13:10:13;3.80;;;2.10;;
72273;SDS011;60208;48.692;8.948;2023-06-14T13:12:39;4.40;;;2.30;;
72273;SDS011;60208;48.692;8.948;2023-06-14T13:15:05;4.25;;;2.30;;
72273;SDS011;60208;48.692;8.948;2023-06-14T13:17:33;8.20;;;2.50;;
72273;SDS011;60208;48.692;8.948;2023-06-14T13:20:04;9.80;;;2.57;;
72273;SDS011;60208;48.692;8.948;2023-06-14T13:22:33;12.85;;;2.70;;
72273;SDS011;60208;48.692;8.948;2023-06-14T13:24:59;2.78;;;1.90;;
72273;SDS011;60208;48.692;8.948;2023-06-14T13:27:25;5.18;;;2.15;;
72273;SDS011;60208;48.692;8.948;2023-06-14T13:29:53;2.53;;;2.30;;
72273;SDS011;60208;48.692;8.948;2023-06-14T13:32:21;5.65;;;2.20;;
72273;SDS011;60208;48.692;8.948;2023-06-14T13:34:50;8.18;;;2.50;;
72273;SDS011;60208;48.692;8.948;2023-06-14T13:37:19;4.50;;;2.33;;
72273;SDS011;60208;48.692;8.948;2023-06-14T13:39:44;3.83;;;2.22;;
72273;SDS011;60208;48.692;8.948;2023-06-14T13:42:12;3.00;;;2.20;;
72273;SDS011;60208;48.692;8.948;2023-06-14T13:44:38;3.45;;;2.33;;
72273;SDS011;60208;48.692;8.948;2023-06-14T13:47:04;4.50;;;2.13;;
72273;SDS011;60208;48.692;8.948;2023-06-14T13:49:33;8.15;;;2.20;;
72273;SDS011;60208;48.692;8.948;2023-06-14T13:52:01;6.17;;;2.60;;
72273;SDS011;60208;48.692;8.948;2023-06-14T13:54:36;6.38;;;2.35;;
72273;SDS011;60208;48.692;8.948;2023-06-14T13:57:02;5.85;;;2.28;;
72273;SDS011;60208;48.692;8.948;2023-06-14T13:59:31;4.20;;;2.20;;
72273;SDS011;60208;48.692;8.948;2023-06-14T14:02:00;6.07;;;2.20;;
72273;SDS011;60208;48.692;8.948;2023-06-14T14:04:25;4.57;;;1.85;;
72273;SDS011;60208;48.692;8.948;2023-06-14T14:06:51;4.82;;;2.30;;
72273;SDS011;60208;48.692;8.948;2023-06-14T14:09:17;3.25;;;2.10;;
72273;SDS011;60208;48.692;8.948;2023-06-14T14:11:42;5.10;;;2.10;;
72273;SDS011;60208;48.692;8.948;2023-06-14T14:14:08;3.72;;;2.08;;
72273;SDS011;60208;48.692;8.948;2023-06-14T14:16:40;4.10;;;2.25;;
72273;SDS011;60208;48.692;8.948;2023-06-14T14:19:05;4.20;;;2.10;;
72273;SDS011;60208;48.692;8.948;2023-06-14T14:21:36;2.78;;;2.10;;
72273;SDS011;60208;48.692;8.948;2023-06-14T14:24:02;5.95;;;1.95;;
72273;SDS011;60208;48.692;8.948;2023-06-14T14:26:29;5.03;;;2.20;;
72273;SDS011;60208;48.692;8.948;2023-06-14T14:28:55;5.55;;;2.45;;
72273;SDS011;60208;48.692;8.948;2023-06-14T14:31:24;2.20;;;2.00;;
72273;SDS011;60208;48.692;8.948;2023-06-14T14:33:50;4.18;;;2.20;;
72273;SDS011;60208;48.692;8.948;2023-06-14T14:36:36;2.67;;;2.42;;
72273;SDS011;60208;48.692;8.948;2023-06-14T14:39:03;8.73;;;2.30;;
72273;SDS011;60208;48.692;8.948;2023-06-14T14:41:30;4.78;;;2.30;;
72273;SDS011;60208;48.692;8.948;2023-06-14T14:43:56;6.80;;;2.22;;
72273;SDS011;60208;48.692;8.948;2023-06-14T14:46:22;2.42;;;2.22;;
72273;SDS011;60208;48.692;8.948;2023-06-14T14:48:51;3.65;;;2.40;;
72273;SDS011;60208;48.692;8.948;2023-06-14T14:51:17;4.13;;;2.30;;
72273;SDS011;60208;48.692;8.948;2023-06-14T14:53:43;4.07;;;2.45;;
72273;SDS011;60208;48.692;8.948;2023-06-14T14:56:09;7.57;;;2.70;;
72273;SDS011;60208;48.692;8.948;2023-06-14T14:58:36;3.25;;;2.42;;
72273;SDS011;60208;48.692;8.948;2023-06-14T15:01:02;2.60;;;2.35;;
72273;SDS011;60208;48.692;8.948;2023-06-14T15:03:32;2.50;;;2.30;;
72273;SDS011;60208;48.692;8.948;2023-06-14T15:05:57;2.50;;;2.30;;
72273;SDS011;60208;48.692;8.948;2023-06-14T15:08:23;3.65;;;2.50;;
72273;SDS011;60208;48.692;8.948;2023-06-14T15:10:49;5.32;;;2.40;;
72273;SDS011;60208;48.692;8.948;2023-06-14T15:13:14;2.90;;;2.30;;
72273;SDS011;60208;48.692;8.948;2023-06-14T15:15:40;3.83;;;2.80;;
72273;SDS011;60208;48.692;8.948;2023-06-14T15:18:05;4.30;;;2.08;;
72273;SDS011;60208;48.692;8.948;2023-06-14T15:20:31;7.03;;;2.50;;
72273;SDS011;60208;48.692;8.948;2023-06-14T15:22:57;3.67;;;2.40;;